sensor_id;sensor_type;location;lat;lon;timestamp;temperature;humidity
23259;DHT22;11798;51.528;7.240;2023-03-20T00:01:58;9.80;99.90
23259;DHT22;11798;51.528;7.240;2023-03-20T00:04:24;9.80;99.90
23259;DHT22;11798;51.528;7.240;2023-03-20T00:06:50;9.80;99.90
23259;DHT22;11798;51.528;7.240;2023-03-20T00:09:16;9.70;99.90
23259;DHT22;11798;51.528;7.240;2023-03-20T00:11:53;9.60;99.90
23259;DHT22;11798;51.528;7.240;2023-03-20T00:14:20;9.60;99.90
23259;DHT22;11798;51.528;7.240;2023-03-20T00:16:49;9.60;99.90
23259;DHT22;11798;51.528;7.240;2023-03-20T00:19:21;9.50;99.90
23259;DHT22;11798;51.528;7.240;2023-03-20T00:21:51;9.50;99.90
23259;DHT22;11798;51.528;7.240;2023-03-20T00:24:18;9.50;99.90
23259;DHT22;11798;51.528;7.240;2023-03-20T00:26:48;9.50;99.90
23259;DHT22;11798;51.528;7.240;2023-03-20T00:29:35;9.40;99.90
23259;DHT22;11798;51.528;7.240;2023-03-20T00:32:01;9.40;99.90
23259;DHT22;11798;51.528;7.240;2023-03-20T00:34:27;9.40;99.90
23259;DHT22;11798;51.528;7.240;2023-03-20T00:36:54;9.30;99.90
23259;DHT22;11798;51.528;7.240;2023-03-20T00:39:21;9.20;99.90
23259;DHT22;11798;51.528;7.240;2023-03-20T00:41:54;9.20;99.90
23259;DHT22;11798;51.528;7.240;2023-03-20T00:47:25;9.30;99.90
23259;DHT22;11798;51.528;7.240;2023-03-20T00:49:52;9.30;99.90
23259;DHT22;11798;51.528;7.240;2023-03-20T00:52:20;9.20;99.90
23259;DHT22;11798;51.528;7.240;2023-03-20T00:54:46;9.10;99.90
23259;DHT22;11798;51.528;7.240;2023-03-20T00:57:19;9.10;99.90
23259;DHT22;11798;51.528;7.240;2023-03-20T01:00:16;9.10;99.90
23259;DHT22;11798;51.528;7.240;2023-03-20T01:02:43;9.10;99.90
23259;DHT22;11798;51.528;7.240;2023-03-20T01:05:10;9.10;99.90
23259;DHT22;11798;51.528;7.240;2023-03-20T01:07:37;9.00;99.90
23259;DHT22;11798;51.528;7.240;2023-03-20T01:10:03;9.10;99.90
23259;DHT22;11798;51.528;7.240;2023-03-20T01:12:29;9.10;99.90
23259;DHT22;11798;51.528;7.240;2023-03-20T01:14:56;9.00;99.90
23259;DHT22;11798;51.528;7.240;2023-03-20T01:17:24;8.90;99.90
23259;DHT22;11798;51.528;7.240;2023-03-20T01:19:50;8.90;99.90
23259;DHT22;11798;51.528;7.240;2023-03-20T01:22:16;8.90;99.90
23259;DHT22;11798;51.528;7.240;2023-03-20T01:24:43;9.00;99.90
23259;DHT22;11798;51.528;7.240;2023-03-20T01:27:15;9.00;99.90
23259;DHT22;11798;51.528;7.240;2023-03-20T01:29:42;9.00;99.90
23259;DHT22;11798;51.528;7.240;2023-03-20T01:32:11;9.00;99.90
23259;DHT22;11798;51.528;7.240;2023-03-20T01:34:38;9.00;99.90
23259;DHT22;11798;51.528;7.240;2023-03-20T01:37:10;9.00;99.90
23259;DHT22;11798;51.528;7.240;2023-03-20T01:39:37;9.00;99.90
23259;DHT22;11798;51.528;7.240;2023-03-20T01:42:04;9.00;99.90
23259;DHT22;11798;51.528;7.240;2023-03-20T01:44:32;8.90;99.90
23259;DHT22;11798;51.528;7.240;2023-03-20T01:47:00;8.90;99.90
23259;DHT22;11798;51.528;7.240;2023-03-20T01:51:53;8.90;99.90
23259;DHT22;11798;51.528;7.240;2023-03-20T01:54:22;8.80;99.90
23259;DHT22;11798;51.528;7.240;2023-03-20T01:56:55;8.90;99.90
23259;DHT22;11798;51.528;7.240;2023-03-20T01:59:46;8.90;99.90
23259;DHT22;11798;51.528;7.240;2023-03-20T02:02:20;8.80;99.90
23259;DHT22;11798;51.528;7.240;2023-03-20T02:04:50;8.90;99.90
23259;DHT22;11798;51.528;7.240;2023-03-20T02:07:19;8.80;99.90
23259;DHT22;11798;51.528;7.240;2023-03-20T02:09:47;8.80;99.90
23259;DHT22;11798;51.528;7.240;2023-03-20T02:12:14;8.80;99.90
23259;DHT22;11798;51.528;7.240;2023-03-20T02:14:41;8.80;99.90
23259;DHT22;11798;51.528;7.240;2023-03-20T02:17:09;8.80;99.90
23259;DHT22;11798;51.528;7.240;2023-03-20T02:30:27;8.70;99.90
23259;DHT22;11798;51.528;7.240;2023-03-20T02:41:34;8.60;99.90
23259;DHT22;11798;51.528;7.240;2023-03-20T03:00:41;8.20;99.90
23259;DHT22;11798;51.528;7.240;2023-03-20T03:03:23;8.20;99.90
23259;DHT22;11798;51.528;7.240;2023-03-20T03:05:59;8.20;99.90
23259;DHT22;11798;51.528;7.240;2023-03-20T03:08:31;8.30;99.90
23259;DHT22;11798;51.528;7.240;2023-03-20T03:11:02;8.30;99.90
23259;DHT22;11798;51.528;7.240;2023-03-20T03:13:31;8.20;99.90
23259;DHT22;11798;51.528;7.240;2023-03-20T03:16:25;8.30;99.90
23259;DHT22;11798;51.528;7.240;2023-03-20T03:18:58;8.30;99.90
23259;DHT22;11798;51.528;7.240;2023-03-20T03:21:27;8.40;99.90
23259;DHT22;11798;51.528;7.240;2023-03-20T03:23:54;8.40;99.90
23259;DHT22;11798;51.528;7.240;2023-03-20T03:26:24;8.40;99.90
23259;DHT22;11798;51.528;7.240;2023-03-20T03:28:57;8.30;99.90
23259;DHT22;11798;51.528;7.240;2023-03-20T03:31:24;8.40;99.90
23259;DHT22;11798;51.528;7.240;2023-03-20T03:33:54;8.40;99.90
23259;DHT22;11798;51.528;7.240;2023-03-20T03:47:20;8.30;99.90
23259;DHT22;11798;51.528;7.240;2023-03-20T03:49:52;8.30;99.90
23259;DHT22;11798;51.528;7.240;2023-03-20T03:52:22;8.40;99.90
23259;DHT22;11798;51.528;7.240;2023-03-20T03:55:21;8.40;99.90
23259;DHT22;11798;51.528;7.240;2023-03-20T03:57:56;8.40;99.90
23259;DHT22;11798;51.528;7.240;2023-03-20T04:00:24;8.30;99.90
23259;DHT22;11798;51.528;7.240;2023-03-20T04:02:55;8.30;99.90
23259;DHT22;11798;51.528;7.240;2023-03-20T04:05:22;8.30;99.90
23259;DHT22;11798;51.528;7.240;2023-03-20T04:07:53;8.30;99.90
23259;DHT22;11798;51.528;7.240;2023-03-20T04:10:19;8.30;99.90
23259;DHT22;11798;51.528;7.240;2023-03-20T04:12:45;8.20;99.90
23259;DHT22;11798;51.528;7.240;2023-03-20T04:15:12;8.20;99.90
23259;DHT22;11798;51.528;7.240;2023-03-20T04:17:38;8.20;99.90
23259;DHT22;11798;51.528;7.240;2023-03-20T04:20:05;8.10;99.90
23259;DHT22;11798;51.528;7.240;2023-03-20T04:22:31;8.10;99.90
23259;DHT22;11798;51.528;7.240;2023-03-20T04:25:00;8.10;99.90
23259;DHT22;11798;51.528;7.240;2023-03-20T04:27:27;8.20;99.90
23259;DHT22;11798;51.528;7.240;2023-03-20T04:29:53;8.20;99.90
23259;DHT22;11798;51.528;7.240;2023-03-20T04:32:19;8.20;99.90
23259;DHT22;11798;51.528;7.240;2023-03-20T04:34:44;8.30;99.90
23259;DHT22;11798;51.528;7.240;2023-03-20T04:37:10;8.30;99.90
23259;DHT22;11798;51.528;7.240;2023-03-20T04:39:36;8.20;99.90
23259;DHT22;11798;51.528;7.240;2023-03-20T04:42:03;8.30;99.90
23259;DHT22;11798;51.528;7.240;2023-03-20T04:44:29;8.20;99.90
23259;DHT22;11798;51.528;7.240;2023-03-20T04:46:55;8.20;99.90
23259;DHT22;11798;51.528;7.240;2023-03-20T04:49:21;8.20;99.90
23259;DHT22;11798;51.528;7.240;2023-03-20T04:51:46;8.20;99.90
23259;DHT22;11798;51.528;7.240;2023-03-20T04:54:12;8.10;99.90
23259;DHT22;11798;51.528;7.240;2023-03-20T04:56:38;8.10;99.90
23259;DHT22;11798;51.528;7.240;2023-03-20T04:59:03;8.10;99.90
23259;DHT22;11798;51.528;7.240;2023-03-20T05:01:29;8.10;99.90
23259;DHT22;11798;51.528;7.240;2023-03-20T05:03:55;8.10;99.90
23259;DHT22;11798;51.528;7.240;2023-03-20T05:06:26;8.10;99.90
23259;DHT22;11798;51.528;7.240;2023-03-20T05:08:51;8.10;99.90
23259;DHT22;11798;51.528;7.240;2023-03-20T05:11:17;8.10;99.90
23259;DHT22;11798;51.528;7.240;2023-03-20T05:13:43;8.10;99.90
23259;DHT22;11798;51.528;7.240;2023-03-20T05:16:08;8.10;99.90
23259;DHT22;11798;51.528;7.240;2023-03-20T05:18:34;8.00;99.90
23259;DHT22;11798;51.528;7.240;2023-03-20T05:21:00;7.90;99.90
23259;DHT22;11798;51.528;7.240;2023-03-20T05:23:27;8.00;99.90
23259;DHT22;11798;51.528;7.240;2023-03-20T05:25:52;7.90;99.90
23259;DHT22;11798;51.528;7.240;2023-03-20T05:28:18;7.90;99.90
23259;DHT22;11798;51.528;7.240;2023-03-20T05:30:44;7.90;99.90
23259;DHT22;11798;51.528;7.240;2023-03-20T05:33:09;7.90;99.90
23259;DHT22;11798;51.528;7.240;2023-03-20T05:35:35;7.90;99.90
23259;DHT22;11798;51.528;7.240;2023-03-20T05:38:01;7.90;99.90
23259;DHT22;11798;51.528;7.240;2023-03-20T05:40:27;7.90;99.90
23259;DHT22;11798;51.528;7.240;2023-03-20T05:42:52;7.90;99.90
23259;DHT22;11798;51.528;7.240;2023-03-20T05:45:18;7.90;99.90
23259;DHT22;11798;51.528;7.240;2023-03-20T05:47:44;7.90;99.90
23259;DHT22;11798;51.528;7.240;2023-03-20T05:50:10;7.80;99.90
23259;DHT22;11798;51.528;7.240;2023-03-20T05:52:36;7.80;99.90
23259;DHT22;11798;51.528;7.240;2023-03-20T05:55:02;7.70;99.90
23259;DHT22;11798;51.528;7.240;2023-03-20T05:57:28;7.70;99.90
23259;DHT22;11798;51.528;7.240;2023-03-20T05:59:57;7.70;99.90
23259;DHT22;11798;51.528;7.240;2023-03-20T06:02:22;7.80;99.90
23259;DHT22;11798;51.528;7.240;2023-03-20T06:04:48;7.70;99.90
23259;DHT22;11798;51.528;7.240;2023-03-20T06:07:14;7.80;99.90
23259;DHT22;11798;51.528;7.240;2023-03-20T06:09:40;7.80;99.90
23259;DHT22;11798;51.528;7.240;2023-03-20T06:12:06;7.80;99.90
23259;DHT22;11798;51.528;7.240;2023-03-20T06:14:32;7.70;99.90
23259;DHT22;11798;51.528;7.240;2023-03-20T06:16:57;7.70;99.90
23259;DHT22;11798;51.528;7.240;2023-03-20T06:19:25;7.70;99.90
23259;DHT22;11798;51.528;7.240;2023-03-20T06:21:50;7.60;99.90
23259;DHT22;11798;51.528;7.240;2023-03-20T06:24:16;7.60;99.90
23259;DHT22;11798;51.528;7.240;2023-03-20T06:26:42;7.70;99.90
23259;DHT22;11798;51.528;7.240;2023-03-20T06:29:08;7.60;99.90
23259;DHT22;11798;51.528;7.240;2023-03-20T06:31:33;7.60;99.90
23259;DHT22;11798;51.528;7.240;2023-03-20T06:33:59;7.60;99.90
23259;DHT22;11798;51.528;7.240;2023-03-20T06:36:25;7.60;99.90
23259;DHT22;11798;51.528;7.240;2023-03-20T06:38:50;7.70;99.90
23259;DHT22;11798;51.528;7.240;2023-03-20T06:41:16;7.60;99.90
23259;DHT22;11798;51.528;7.240;2023-03-20T06:43:42;7.60;99.90
23259;DHT22;11798;51.528;7.240;2023-03-20T06:46:08;7.60;99.90
23259;DHT22;11798;51.528;7.240;2023-03-20T06:48:36;7.60;99.90
23259;DHT22;11798;51.528;7.240;2023-03-20T06:51:02;7.70;99.90
23259;DHT22;11798;51.528;7.240;2023-03-20T06:53:28;7.70;99.90
23259;DHT22;11798;51.528;7.240;2023-03-20T06:55:54;7.70;99.90
23259;DHT22;11798;51.528;7.240;2023-03-20T06:58:20;7.70;99.90
23259;DHT22;11798;51.528;7.240;2023-03-20T07:00:45;7.70;99.90
23259;DHT22;11798;51.528;7.240;2023-03-20T07:03:12;7.70;99.90
23259;DHT22;11798;51.528;7.240;2023-03-20T07:05:38;7.80;99.90
23259;DHT22;11798;51.528;7.240;2023-03-20T07:08:05;7.70;99.90
23259;DHT22;11798;51.528;7.240;2023-03-20T07:10:32;7.70;99.90
23259;DHT22;11798;51.528;7.240;2023-03-20T07:12:58;7.70;99.90
23259;DHT22;11798;51.528;7.240;2023-03-20T07:15:25;7.80;99.90
23259;DHT22;11798;51.528;7.240;2023-03-20T07:17:51;7.90;99.90
23259;DHT22;11798;51.528;7.240;2023-03-20T07:20:17;7.90;99.90
23259;DHT22;11798;51.528;7.240;2023-03-20T07:22:43;7.90;99.90
23259;DHT22;11798;51.528;7.240;2023-03-20T07:25:09;7.90;99.90
23259;DHT22;11798;51.528;7.240;2023-03-20T07:27:35;8.00;99.90
23259;DHT22;11798;51.528;7.240;2023-03-20T07:30:03;7.90;99.90
23259;DHT22;11798;51.528;7.240;2023-03-20T07:32:29;7.90;99.90
23259;DHT22;11798;51.528;7.240;2023-03-20T07:34:55;8.00;99.90
23259;DHT22;11798;51.528;7.240;2023-03-20T07:37:20;8.00;99.90
23259;DHT22;11798;51.528;7.240;2023-03-20T07:39:46;8.10;99.90
23259;DHT22;11798;51.528;7.240;2023-03-20T07:42:12;8.20;99.90
23259;DHT22;11798;51.528;7.240;2023-03-20T07:44:41;8.30;99.90
23259;DHT22;11798;51.528;7.240;2023-03-20T07:47:06;8.30;99.90
23259;DHT22;11798;51.528;7.240;2023-03-20T07:49:32;8.40;99.90
23259;DHT22;11798;51.528;7.240;2023-03-20T07:51:58;8.50;99.90
23259;DHT22;11798;51.528;7.240;2023-03-20T07:54:24;8.50;99.90
23259;DHT22;11798;51.528;7.240;2023-03-20T07:56:50;8.50;99.90
23259;DHT22;11798;51.528;7.240;2023-03-20T07:59:16;8.50;99.90
23259;DHT22;11798;51.528;7.240;2023-03-20T08:01:42;8.50;99.90
23259;DHT22;11798;51.528;7.240;2023-03-20T08:04:08;8.60;99.90
23259;DHT22;11798;51.528;7.240;2023-03-20T08:06:34;8.70;99.90
23259;DHT22;11798;51.528;7.240;2023-03-20T08:09:00;8.80;99.90
23259;DHT22;11798;51.528;7.240;2023-03-20T08:11:26;8.80;99.90
23259;DHT22;11798;51.528;7.240;2023-03-20T08:13:52;8.80;99.90
23259;DHT22;11798;51.528;7.240;2023-03-20T08:16:17;8.80;99.90
23259;DHT22;11798;51.528;7.240;2023-03-20T08:18:43;8.80;99.90
23259;DHT22;11798;51.528;7.240;2023-03-20T08:21:09;8.90;99.90
23259;DHT22;11798;51.528;7.240;2023-03-20T08:23:34;8.80;99.90
23259;DHT22;11798;51.528;7.240;2023-03-20T08:26:00;8.80;99.90
23259;DHT22;11798;51.528;7.240;2023-03-20T08:28:25;8.90;99.90
23259;DHT22;11798;51.528;7.240;2023-03-20T08:30:51;9.10;99.90
23259;DHT22;11798;51.528;7.240;2023-03-20T08:33:18;9.20;99.90
23259;DHT22;11798;51.528;7.240;2023-03-20T08:35:54;9.30;99.90
23259;DHT22;11798;51.528;7.240;2023-03-20T08:38:20;9.30;99.90
23259;DHT22;11798;51.528;7.240;2023-03-20T08:40:46;9.40;99.90
23259;DHT22;11798;51.528;7.240;2023-03-20T08:43:11;9.40;99.90
23259;DHT22;11798;51.528;7.240;2023-03-20T08:45:37;9.50;99.90
23259;DHT22;11798;51.528;7.240;2023-03-20T08:48:03;9.50;99.90
23259;DHT22;11798;51.528;7.240;2023-03-20T08:50:29;9.40;99.90
23259;DHT22;11798;51.528;7.240;2023-03-20T08:52:55;9.40;99.90
23259;DHT22;11798;51.528;7.240;2023-03-20T08:55:20;9.50;99.90
23259;DHT22;11798;51.528;7.240;2023-03-20T08:57:46;9.60;99.90
23259;DHT22;11798;51.528;7.240;2023-03-20T09:00:14;9.60;99.90
23259;DHT22;11798;51.528;7.240;2023-03-20T09:02:42;9.60;99.90
23259;DHT22;11798;51.528;7.240;2023-03-20T09:05:09;9.60;99.90
23259;DHT22;11798;51.528;7.240;2023-03-20T09:07:35;9.50;99.90
23259;DHT22;11798;51.528;7.240;2023-03-20T09:10:02;9.60;99.90
23259;DHT22;11798;51.528;7.240;2023-03-20T09:12:28;9.60;99.90
23259;DHT22;11798;51.528;7.240;2023-03-20T09:14:56;9.60;99.90
23259;DHT22;11798;51.528;7.240;2023-03-20T09:17:21;9.70;99.90
23259;DHT22;11798;51.528;7.240;2023-03-20T09:19:47;9.70;99.90
23259;DHT22;11798;51.528;7.240;2023-03-20T09:22:14;9.70;99.90
23259;DHT22;11798;51.528;7.240;2023-03-20T09:24:42;9.70;99.90
23259;DHT22;11798;51.528;7.240;2023-03-20T09:27:08;9.70;99.90
23259;DHT22;11798;51.528;7.240;2023-03-20T09:29:34;9.70;99.90
23259;DHT22;11798;51.528;7.240;2023-03-20T09:32:00;9.70;99.90
23259;DHT22;11798;51.528;7.240;2023-03-20T09:34:26;9.70;99.90
23259;DHT22;11798;51.528;7.240;2023-03-20T09:36:51;9.70;99.90
23259;DHT22;11798;51.528;7.240;2023-03-20T09:39:17;9.70;99.90
23259;DHT22;11798;51.528;7.240;2023-03-20T09:41:52;9.70;99.90
23259;DHT22;11798;51.528;7.240;2023-03-20T09:47:18;9.60;99.90
23259;DHT22;11798;51.528;7.240;2023-03-20T09:49:58;9.60;99.90
23259;DHT22;11798;51.528;7.240;2023-03-20T09:53:09;9.60;99.90
23259;DHT22;11798;51.528;7.240;2023-03-20T09:55:19;9.60;99.90
23259;DHT22;11798;51.528;7.240;2023-03-20T09:57:49;9.60;99.90
23259;DHT22;11798;51.528;7.240;2023-03-20T10:00:27;9.60;99.90
23259;DHT22;11798;51.528;7.240;2023-03-20T10:03:04;9.60;99.90
23259;DHT22;11798;51.528;7.240;2023-03-20T10:06:00;9.60;99.90
23259;DHT22;11798;51.528;7.240;2023-03-20T10:08:33;9.50;99.90
23259;DHT22;11798;51.528;7.240;2023-03-20T10:13:53;9.70;99.90
23259;DHT22;11798;51.528;7.240;2023-03-20T10:19:15;9.80;99.90
23259;DHT22;11798;51.528;7.240;2023-03-20T10:21:44;9.90;99.90
23259;DHT22;11798;51.528;7.240;2023-03-20T10:24:27;9.80;99.90
23259;DHT22;11798;51.528;7.240;2023-03-20T10:26:55;9.80;99.90
23259;DHT22;11798;51.528;7.240;2023-03-20T10:29:35;9.70;99.90
23259;DHT22;11798;51.528;7.240;2023-03-20T10:32:15;9.70;99.90
23259;DHT22;11798;51.528;7.240;2023-03-20T10:40:29;9.80;99.90
23259;DHT22;11798;51.528;7.240;2023-03-20T10:43:03;9.90;99.90
23259;DHT22;11798;51.528;7.240;2023-03-20T10:48:03;9.90;99.90
23259;DHT22;11798;51.528;7.240;2023-03-20T10:50:36;9.80;99.90
23259;DHT22;11798;51.528;7.240;2023-03-20T10:53:05;9.90;99.90
23259;DHT22;11798;51.528;7.240;2023-03-20T10:55:38;9.90;99.90
23259;DHT22;11798;51.528;7.240;2023-03-20T11:00:39;10.10;99.90
23259;DHT22;11798;51.528;7.240;2023-03-20T11:03:06;10.10;99.90
23259;DHT22;11798;51.528;7.240;2023-03-20T11:05:38;10.10;99.90
23259;DHT22;11798;51.528;7.240;2023-03-20T11:08:10;10.10;99.90
23259;DHT22;11798;51.528;7.240;2023-03-20T11:10:37;10.10;99.90
23259;DHT22;11798;51.528;7.240;2023-03-20T11:13:34;10.10;99.90
23259;DHT22;11798;51.528;7.240;2023-03-20T11:16:23;10.10;99.90
23259;DHT22;11798;51.528;7.240;2023-03-20T11:18:50;10.10;99.90
23259;DHT22;11798;51.528;7.240;2023-03-20T11:21:26;10.20;99.90
23259;DHT22;11798;51.528;7.240;2023-03-20T11:23:53;10.10;99.90
23259;DHT22;11798;51.528;7.240;2023-03-20T11:28:58;10.20;99.90
23259;DHT22;11798;51.528;7.240;2023-03-20T11:34:22;10.50;99.90
23259;DHT22;11798;51.528;7.240;2023-03-20T11:36:57;10.60;99.90
23259;DHT22;11798;51.528;7.240;2023-03-20T11:39:29;10.70;99.90
23259;DHT22;11798;51.528;7.240;2023-03-20T11:41:59;10.70;99.90
23259;DHT22;11798;51.528;7.240;2023-03-20T11:44:32;10.70;99.90
23259;DHT22;11798;51.528;7.240;2023-03-20T11:47:05;10.70;99.90
23259;DHT22;11798;51.528;7.240;2023-03-20T11:49:57;10.70;99.90
23259;DHT22;11798;51.528;7.240;2023-03-20T11:52:29;10.60;99.90
23259;DHT22;11798;51.528;7.240;2023-03-20T11:54:58;10.60;99.90
23259;DHT22;11798;51.528;7.240;2023-03-20T11:57:32;10.60;99.90
23259;DHT22;11798;51.528;7.240;2023-03-20T12:00:19;10.70;99.90
23259;DHT22;11798;51.528;7.240;2023-03-20T12:02:45;10.80;99.90
23259;DHT22;11798;51.528;7.240;2023-03-20T12:07:57;10.80;99.90
23259;DHT22;11798;51.528;7.240;2023-03-20T12:10:28;10.60;99.90
23259;DHT22;11798;51.528;7.240;2023-03-20T12:13:02;10.50;99.90
23259;DHT22;11798;51.528;7.240;2023-03-20T12:15:35;10.40;99.90
23259;DHT22;11798;51.528;7.240;2023-03-20T12:21:11;10.40;99.90
23259;DHT22;11798;51.528;7.240;2023-03-20T12:23:43;10.20;99.90
23259;DHT22;11798;51.528;7.240;2023-03-20T12:26:32;10.00;99.90
23259;DHT22;11798;51.528;7.240;2023-03-20T12:29:27;10.10;99.90
23259;DHT22;11798;51.528;7.240;2023-03-20T12:31:55;10.20;99.90
23259;DHT22;11798;51.528;7.240;2023-03-20T12:36:59;9.90;99.90
23259;DHT22;11798;51.528;7.240;2023-03-20T12:39:37;10.00;99.90
23259;DHT22;11798;51.528;7.240;2023-03-20T12:45:12;10.00;99.90
23259;DHT22;11798;51.528;7.240;2023-03-20T12:48:03;10.20;99.90
23259;DHT22;11798;51.528;7.240;2023-03-20T12:50:39;10.20;99.90
23259;DHT22;11798;51.528;7.240;2023-03-20T13:01:44;10.20;99.90
23259;DHT22;11798;51.528;7.240;2023-03-20T13:04:34;10.30;99.90
23259;DHT22;11798;51.528;7.240;2023-03-20T13:07:06;10.40;99.90
23259;DHT22;11798;51.528;7.240;2023-03-20T13:18:18;10.40;99.90
23259;DHT22;11798;51.528;7.240;2023-03-20T13:20:54;10.40;99.90
23259;DHT22;11798;51.528;7.240;2023-03-20T13:31:33;10.30;99.90
23259;DHT22;11798;51.528;7.240;2023-03-20T13:34:23;10.30;99.90
23259;DHT22;11798;51.528;7.240;2023-03-20T13:39:43;10.30;99.90
23259;DHT22;11798;51.528;7.240;2023-03-20T13:42:21;10.30;99.90
23259;DHT22;11798;51.528;7.240;2023-03-20T13:44:50;10.50;99.90
23259;DHT22;11798;51.528;7.240;2023-03-20T13:47:21;10.50;99.90
23259;DHT22;11798;51.528;7.240;2023-03-20T13:52:41;10.40;99.90
23259;DHT22;11798;51.528;7.240;2023-03-20T13:58:26;10.50;99.90
23259;DHT22;11798;51.528;7.240;2023-03-20T14:03:44;10.70;99.90
23259;DHT22;11798;51.528;7.240;2023-03-20T14:08:55;10.30;99.90
23259;DHT22;11798;51.528;7.240;2023-03-20T14:14:23;10.30;99.90
23259;DHT22;11798;51.528;7.240;2023-03-20T14:17:06;10.30;99.90
23259;DHT22;11798;51.528;7.240;2023-03-20T14:19:35;10.40;99.90
23259;DHT22;11798;51.528;7.240;2023-03-20T14:22:02;10.40;99.90
23259;DHT22;11798;51.528;7.240;2023-03-20T14:24:28;10.40;99.90
23259;DHT22;11798;51.528;7.240;2023-03-20T14:26:56;10.30;99.90
23259;DHT22;11798;51.528;7.240;2023-03-20T14:29:35;10.40;99.90
23259;DHT22;11798;51.528;7.240;2023-03-20T14:32:21;10.40;99.90
23259;DHT22;11798;51.528;7.240;2023-03-20T14:37:34;10.40;99.90
23259;DHT22;11798;51.528;7.240;2023-03-20T14:40:16;10.40;99.90
23259;DHT22;11798;51.528;7.240;2023-03-20T14:45:55;10.30;99.90
23259;DHT22;11798;51.528;7.240;2023-03-20T14:51:26;10.30;99.90
23259;DHT22;11798;51.528;7.240;2023-03-20T14:53:56;10.40;99.90
23259;DHT22;11798;51.528;7.240;2023-03-20T14:56:32;10.50;99.90
23259;DHT22;11798;51.528;7.240;2023-03-20T14:59:05;10.50;99.90
23259;DHT22;11798;51.528;7.240;2023-03-20T15:01:45;10.50;99.90
23259;DHT22;11798;51.528;7.240;2023-03-20T15:07:33;10.60;99.90
23259;DHT22;11798;51.528;7.240;2023-03-20T15:10:02;10.60;99.90
23259;DHT22;11798;51.528;7.240;2023-03-20T15:12:33;10.70;99.90
23259;DHT22;11798;51.528;7.240;2023-03-20T15:15:02;10.60;99.90
23259;DHT22;11798;51.528;7.240;2023-03-20T15:17:40;10.70;99.90
23259;DHT22;11798;51.528;7.240;2023-03-20T15:20:30;10.50;99.90
23259;DHT22;11798;51.528;7.240;2023-03-20T15:22:57;10.40;99.90
23259;DHT22;11798;51.528;7.240;2023-03-20T15:25:43;10.40;99.90
23259;DHT22;11798;51.528;7.240;2023-03-20T15:28:25;10.50;99.90
23259;DHT22;11798;51.528;7.240;2023-03-20T15:30:55;10.50;99.90
23259;DHT22;11798;51.528;7.240;2023-03-20T15:33:32;10.50;99.90
23259;DHT22;11798;51.528;7.240;2023-03-20T15:36:07;10.30;99.90
23259;DHT22;11798;51.528;7.240;2023-03-20T15:38:34;10.20;99.90
23259;DHT22;11798;51.528;7.240;2023-03-20T15:41:05;10.20;99.90
23259;DHT22;11798;51.528;7.240;2023-03-20T15:43:32;10.10;99.90
23259;DHT22;11798;51.528;7.240;2023-03-20T15:45:59;10.10;99.90
23259;DHT22;11798;51.528;7.240;2023-03-20T15:48:25;10.10;99.90
23259;DHT22;11798;51.528;7.240;2023-03-20T15:50:57;10.00;99.90
23259;DHT22;11798;51.528;7.240;2023-03-20T15:53:35;10.00;99.90
23259;DHT22;11798;51.528;7.240;2023-03-20T15:56:04;10.10;99.90
23259;DHT22;11798;51.528;7.240;2023-03-20T15:58:30;10.20;99.90
23259;DHT22;11798;51.528;7.240;2023-03-20T16:00:58;10.00;99.90
23259;DHT22;11798;51.528;7.240;2023-03-20T16:03:26;10.00;99.90
23259;DHT22;11798;51.528;7.240;2023-03-20T16:05:52;10.10;99.90
23259;DHT22;11798;51.528;7.240;2023-03-20T16:08:30;10.00;99.90
23259;DHT22;11798;51.528;7.240;2023-03-20T16:11:12;10.00;99.90
23259;DHT22;11798;51.528;7.240;2023-03-20T16:13:40;10.00;99.90
23259;DHT22;11798;51.528;7.240;2023-03-20T16:16:09;10.00;99.90
23259;DHT22;11798;51.528;7.240;2023-03-20T16:18:37;10.00;99.90
23259;DHT22;11798;51.528;7.240;2023-03-20T16:21:25;10.00;99.90
23259;DHT22;11798;51.528;7.240;2023-03-20T16:23:54;10.00;99.90
23259;DHT22;11798;51.528;7.240;2023-03-20T16:26:22;10.00;99.90
23259;DHT22;11798;51.528;7.240;2023-03-20T16:28:54;10.00;99.90
23259;DHT22;11798;51.528;7.240;2023-03-20T16:33:51;9.80;99.90
23259;DHT22;11798;51.528;7.240;2023-03-20T16:36:20;9.70;99.90
23259;DHT22;11798;51.528;7.240;2023-03-20T16:41:33;9.70;99.90
23259;DHT22;11798;51.528;7.240;2023-03-20T16:44:09;9.70;99.90
23259;DHT22;11798;51.528;7.240;2023-03-20T16:46:36;9.70;99.90
23259;DHT22;11798;51.528;7.240;2023-03-20T16:51:57;9.50;99.90
23259;DHT22;11798;51.528;7.240;2023-03-20T16:54:26;9.40;99.90
23259;DHT22;11798;51.528;7.240;2023-03-20T16:56:56;9.40;99.90
23259;DHT22;11798;51.528;7.240;2023-03-20T16:59:23;9.40;99.90
23259;DHT22;11798;51.528;7.240;2023-03-20T17:01:50;9.40;99.90
23259;DHT22;11798;51.528;7.240;2023-03-20T17:04:39;9.30;99.90
23259;DHT22;11798;51.528;7.240;2023-03-20T17:07:14;9.30;99.90
23259;DHT22;11798;51.528;7.240;2023-03-20T17:10:10;9.40;99.90
23259;DHT22;11798;51.528;7.240;2023-03-20T17:12:38;9.40;99.90
23259;DHT22;11798;51.528;7.240;2023-03-20T17:15:05;9.40;99.90
23259;DHT22;11798;51.528;7.240;2023-03-20T17:17:31;9.30;99.90
23259;DHT22;11798;51.528;7.240;2023-03-20T17:19:58;9.30;99.90
23259;DHT22;11798;51.528;7.240;2023-03-20T17:22:26;9.30;99.90
23259;DHT22;11798;51.528;7.240;2023-03-20T17:24:54;9.20;99.90
23259;DHT22;11798;51.528;7.240;2023-03-20T17:27:20;9.20;99.90
23259;DHT22;11798;51.528;7.240;2023-03-20T17:29:46;9.10;99.90
23259;DHT22;11798;51.528;7.240;2023-03-20T17:32:19;9.10;99.90
23259;DHT22;11798;51.528;7.240;2023-03-20T17:34:45;9.10;99.90
23259;DHT22;11798;51.528;7.240;2023-03-20T17:37:13;9.10;99.90
23259;DHT22;11798;51.528;7.240;2023-03-20T17:39:40;9.10;99.90
23259;DHT22;11798;51.528;7.240;2023-03-20T17:42:21;9.10;99.90
23259;DHT22;11798;51.528;7.240;2023-03-20T17:44:49;9.10;99.90
23259;DHT22;11798;51.528;7.240;2023-03-20T17:47:20;9.00;99.90
23259;DHT22;11798;51.528;7.240;2023-03-20T17:49:47;9.00;99.90
23259;DHT22;11798;51.528;7.240;2023-03-20T17:52:15;9.00;99.90
23259;DHT22;11798;51.528;7.240;2023-03-20T17:54:45;9.10;99.90
23259;DHT22;11798;51.528;7.240;2023-03-20T17:59:43;9.00;99.90
23259;DHT22;11798;51.528;7.240;2023-03-20T18:02:09;9.10;99.90
23259;DHT22;11798;51.528;7.240;2023-03-20T18:04:35;9.10;99.90
23259;DHT22;11798;51.528;7.240;2023-03-20T18:07:01;9.10;99.90
23259;DHT22;11798;51.528;7.240;2023-03-20T18:09:27;9.00;99.90
23259;DHT22;11798;51.528;7.240;2023-03-20T18:11:52;9.10;99.90
23259;DHT22;11798;51.528;7.240;2023-03-20T18:14:18;9.00;99.90
23259;DHT22;11798;51.528;7.240;2023-03-20T18:16:44;9.10;99.90
23259;DHT22;11798;51.528;7.240;2023-03-20T18:19:23;9.10;99.90
23259;DHT22;11798;51.528;7.240;2023-03-20T18:21:50;9.10;99.90
23259;DHT22;11798;51.528;7.240;2023-03-20T18:24:16;9.10;99.90
23259;DHT22;11798;51.528;7.240;2023-03-20T18:26:41;9.10;99.90
23259;DHT22;11798;51.528;7.240;2023-03-20T18:29:10;9.10;99.90
23259;DHT22;11798;51.528;7.240;2023-03-20T18:31:36;9.10;99.90
23259;DHT22;11798;51.528;7.240;2023-03-20T18:34:02;9.10;99.90